Anna, Ohio
Current Conditions -  °F | °C
As of 11:14 AM on Sunday 23 Nov 2014 (Local Time) from KAXV Reporting Station
Scattered Clouds Scattered Clouds  
Wind Chill: 13°   Ceiling: Unl
Heat Index: 13°   Visibility: 10mi
Dew Point:   Wind: 12mph
Humidity: 72%   Direction: 160°SSE
Pressure: 29.89"   Gusts: NA
Location:  40.39°N, 84.17°W
Report Text: KAXV 231614Z AUTO 16010KT 10SM SCT100 13/08 A2989 RMK AO2
Loading
Personal Weather Stations






























Interactive Weather Map New forecast layout! Learn more

10-Day Weather Forecast

Advertisements
Track Severe Weather on mobile